Time;durP1;ratioP1;P1;durP2;ratioP2;P2;SDS_P1;SDS_P2;PMS_P1;PMS_P2;Temp;Humidity;BMP_temperature;BMP_pressure;BME280_temperature;BME280_humidity;BME280_pressure;Samples;Min_cycle;Max_cycle;Signal;HPM_P1;HPM_P2
2023/01/02 00:01:39;;;;;;;5.60;3.10;;;;;;;5.37;67.52;93546.78;2057934;69;20593;-76
2023/01/02 00:04:06;;;;;;;8.27;3.33;;;;;;;5.33;66.81;93533.19;2055625;69;20540;-80
2023/01/02 00:06:36;;;;;;;7.22;3.63;;;;;;;5.28;67.61;93534.84;2055908;69;20178;-74
2023/01/02 00:09:03;;;;;;;7.28;3.75;;;;;;;5.34;67.45;93531.88;2056822;69;20532;-75
2023/01/02 00:11:29;;;;;;;6.32;3.13;;;;;;;5.48;67.04;93524.06;2057872;69;20138;-75
2023/01/02 00:13:54;;;;;;;6.80;3.42;;;;;;;5.56;66.86;93527.63;2057694;69;20162;-73
2023/01/02 00:16:20;;;;;;;7.28;2.90;;;;;;;5.64;66.66;93536.00;2056498;69;20141;-73
2023/01/02 00:18:45;;;;;;;6.28;3.50;;;;;;;4.78;69.09;93534.38;2054515;69;20154;-73
2023/01/02 00:21:11;;;;;;;6.65;3.33;;;;;;;4.92;68.15;93529.38;2054276;69;20157;-76
2023/01/02 00:23:37;;;;;;;5.55;3.30;;;;;;;5.07;68.22;93537.03;2053754;69;20145;-77
2023/01/02 00:26:04;;;;;;;5.90;3.15;;;;;;;5.08;67.96;93530.16;2054194;69;20162;-75
2023/01/02 00:28:30;;;;;;;6.85;3.30;;;;;;;5.16;67.53;93532.97;2055506;69;20188;-77
2023/01/02 00:30:57;;;;;;;6.80;3.53;;;;;;;5.02;67.57;93530.34;2055928;69;20562;-78
2023/01/02 00:33:22;;;;;;;6.65;3.55;;;;;;;5.13;66.88;93532.03;2057796;69;20153;-80
2023/01/02 00:35:48;;;;;;;5.78;3.15;;;;;;;4.94;68.14;93532.34;2057824;69;20150;-80
2023/01/02 00:38:13;;;;;;;5.35;3.13;;;;;;;5.07;67.88;93531.47;2057484;69;20169;-77
2023/01/02 00:40:40;;;;;;;6.57;3.53;;;;;;;5.13;68.15;93534.06;2057719;69;20562;-79
2023/01/02 00:43:06;;;;;;;7.70;3.20;;;;;;;4.97;68.48;93528.47;2056009;69;20264;-75
2023/01/02 00:45:31;;;;;;;6.45;2.90;;;;;;;5.18;67.72;93533.91;2054360;69;20605;-75
2023/01/02 00:47:57;;;;;;;6.22;3.00;;;;;;;5.32;67.19;93524.06;2055197;69;20566;-73
2023/01/02 00:50:22;;;;;;;4.55;2.80;;;;;;;5.25;67.36;93524.78;2057702;69;20225;-73
2023/01/02 00:52:48;;;;;;;4.72;2.90;;;;;;;5.08;67.64;93527.34;2055962;69;20244;-72
2023/01/02 00:55:15;;;;;;;5.47;2.88;;;;;;;5.18;67.24;93527.56;2054005;69;20266;-79
2023/01/02 00:57:41;;;;;;;4.97;3.10;;;;;;;5.00;67.73;93524.56;2055990;69;20169;-79
2023/01/02 01:00:07;;;;;;;5.80;3.13;;;;;;;5.00;68.40;93526.63;2054243;69;20586;-76
2023/01/02 01:02:32;;;;;;;5.28;2.95;;;;;;;4.82;69.01;93523.59;2053884;69;20169;-76
2023/01/02 01:04:58;;;;;;;5.55;2.80;;;;;;;4.91;68.39;93530.69;2057634;69;20522;-80
2023/01/02 01:07:23;;;;;;;5.20;2.90;;;;;;;4.99;67.80;93528.63;2057085;69;20550;-75
2023/01/02 01:09:49;;;;;;;4.28;2.70;;;;;;;5.01;67.24;93523.28;2057460;69;20628;-77
2023/01/02 01:12:15;;;;;;;4.75;2.78;;;;;;;4.96;67.13;93520.66;2057346;69;20643;-79
2023/01/02 01:14:40;;;;;;;4.38;2.50;;;;;;;5.07;67.27;93523.09;2056122;69;20222;-79
2023/01/02 01:17:06;;;;;;;5.18;2.75;;;;;;;5.09;67.80;93524.03;2054225;69;20154;-71
2023/01/02 01:19:33;;;;;;;5.18;2.70;;;;;;;4.93;67.77;93521.75;2059549;69;20145;-71
2023/01/02 01:21:59;;;;;;;5.20;2.95;;;;;;;4.77;68.91;93518.94;2057381;69;20141;-72
2023/01/02 01:24:25;;;;;;;4.72;2.72;;;;;;;5.00;68.59;93509.88;2057360;69;20166;-72
2023/01/02 01:26:53;;;;;;;5.10;2.70;;;;;;;5.31;67.37;93508.63;2057726;69;20568;-72
2023/01/02 01:29:19;;;;;;;4.97;2.40;;;;;;;5.20;67.95;93511.00;2055541;69;20629;-72
2023/01/02 01:31:45;;;;;;;5.57;2.58;;;;;;;5.26;67.85;93503.94;2054410;69;20169;-72
2023/01/02 01:34:11;;;;;;;4.80;2.53;;;;;;;5.34;66.88;93501.91;2055087;69;20223;-75
2023/01/02 01:36:37;;;;;;;4.63;2.50;;;;;;;5.35;67.01;93503.38;2054990;69;20767;-78
2023/01/02 01:39:03;;;;;;;4.25;2.83;;;;;;;5.48;66.13;93508.06;2053532;70;20216;-76
2023/01/02 01:41:28;;;;;;;4.50;2.80;;;;;;;5.63;65.93;93503.75;2053724;70;20146;-75
2023/01/02 01:43:56;;;;;;;3.20;1.85;;;;;;;5.50;67.35;93504.72;2054573;69;20161;-77
2023/01/02 01:46:34;;;;;;;4.15;2.33;;;;;;;5.57;66.40;93499.09;2053659;69;20131;-78
2023/01/02 01:49:03;;;;;;;3.85;2.50;;;;;;;5.49;67.30;93501.16;2054164;69;20233;-79
2023/01/02 01:51:32;;;;;;;5.55;2.55;;;;;;;5.49;67.15;93495.56;2055444;69;20153;-72
2023/01/02 01:54:07;;;;;;;3.72;2.15;;;;;;;5.58;66.28;93494.28;2057468;69;20243;-71
2023/01/02 01:56:40;;;;;;;5.30;2.28;;;;;;;5.78;65.46;93490.53;2055645;69;20169;-71
2023/01/02 01:59:06;;;;;;;;;;;;;;;5.70;65.55;93489.06;2055552;69;20176;-79
2023/01/02 02:01:32;;;;;;;7.97;3.67;;;;;;;5.65;65.38;93490.00;2054209;69;20050;-76
2023/01/02 02:03:58;;;;;;;7.00;3.72;;;;;;;5.36;67.09;93492.97;2055642;69;20175;-76
2023/01/02 02:06:24;;;;;;;7.78;4.05;;;;;;;5.41;66.16;93494.09;2056778;69;20149;-78
2023/01/02 02:09:05;;;;;;;8.15;3.80;;;;;;;5.32;66.22;93495.41;2056796;69;20160;-73
2023/01/02 02:11:31;;;;;;;7.55;4.10;;;;;;;5.01;67.65;93486.25;2057653;69;20536;-76
2023/01/02 02:14:00;;;;;;;4.63;2.67;;;;;;;5.33;67.24;93492.03;2057658;69;20243;-80
2023/01/02 02:16:29;;;;;;;5.50;3.30;;;;;;;5.20;66.90;93489.44;2057070;69;20240;-70
2023/01/02 02:19:10;;;;;;;5.97;2.55;;;;;;;5.35;66.69;93491.47;2057474;69;20145;-72
2023/01/02 02:21:44;;;;;;;3.60;2.25;;;;;;;5.26;67.19;93489.25;2056961;69;20161;-73
2023/01/02 02:24:28;;;;;;;3.95;2.40;;;;;;;5.43;66.24;93488.69;2056944;69;20153;-78
2023/01/02 02:27:31;;;;;;;5.00;2.15;;;;;;;5.44;66.29;93488.13;2057711;69;20267;-71
2023/01/02 02:30:10;;;;;;;2.60;1.77;;;;;;;5.54;65.83;93477.13;2057575;69;20166;-71
2023/01/02 02:32:54;;;;;;;4.15;2.22;;;;;;;5.40;66.24;93475.84;2054597;69;20555;-71
2023/01/02 02:35:58;;;;;;;4.25;2.50;;;;;;;5.42;65.97;93470.47;2055784;69;20134;-72
2023/01/02 02:38:44;;;;;;;;;;;;;;;5.55;65.39;93473.06;2054704;69;20142;-71
2023/01/02 02:41:42;;;;;;;3.60;2.00;;;;;;;5.48;65.88;93465.41;2051320;70;20042;-71
2023/01/02 02:44:39;;;;;;;4.22;2.10;;;;;;;5.59;65.18;93468.59;2055712;69;20154;-72
2023/01/02 02:47:06;;;;;;;2.78;1.73;;;;;;;5.42;66.46;93459.28;2057668;69;20177;-72
2023/01/02 02:49:52;;;;;;;3.42;1.90;;;;;;;5.48;66.10;93468.22;2056741;69;20164;-72
2023/01/02 02:52:29;;;;;;;2.30;1.70;;;;;;;5.52;66.20;93463.00;2056678;69;20226;-72
2023/01/02 02:55:09;;;;;;;3.13;1.50;;;;;;;5.48;66.28;93468.22;2055796;69;20329;-73
2023/01/02 02:57:36;;;;;;;3.53;1.50;;;;;;;5.47;66.11;93464.69;2057784;69;20152;-72
2023/01/02 03:00:09;;;;;;;3.50;2.05;;;;;;;5.48;65.84;93468.94;2057573;69;20138;-74
2023/01/02 03:02:35;;;;;;;3.58;2.30;;;;;;;5.01;67.41;93455.53;2057995;69;20157;-72
2023/01/02 03:05:05;;;;;;;3.30;2.13;;;;;;;5.11;66.95;93464.84;2054237;69;20175;-74
2023/01/02 03:07:52;;;;;;;2.88;1.90;;;;;;;5.16;66.94;93466.72;2054867;69;20245;-72
2023/01/02 03:10:39;;;;;;;2.95;1.77;;;;;;;5.26;66.74;93469.69;2055324;69;20529;-72
2023/01/02 03:13:22;;;;;;;4.10;2.20;;;;;;;5.01;67.12;93466.72;2055535;69;20150;-72
2023/01/02 03:15:50;;;;;;;3.00;1.48;;;;;;;5.15;67.17;93470.81;2056326;69;20168;-71
2023/01/02 03:18:24;;;;;;;1.70;1.00;;;;;;;5.28;67.36;93465.06;2056127;69;20260;-71
2023/01/02 03:21:01;;;;;;;1.50;0.90;;;;;;;5.30;67.41;93473.59;2054185;69;20618;-70
2023/01/02 03:23:30;;;;;;;3.40;1.92;;;;;;;5.13;66.60;93467.06;2054443;69;20154;-74
2023/01/02 03:25:58;;;;;;;4.13;2.00;;;;;;;5.07;66.31;93462.44;2057703;69;20158;-70
2023/01/02 03:28:25;;;;;;;3.10;1.80;;;;;;;4.90;66.60;93458.69;2057454;69;20142;-70
2023/01/02 03:30:55;;;;;;;3.45;1.60;;;;;;;4.97;66.78;93457.97;2057576;69;20185;-71
2023/01/02 03:33:28;;;;;;;4.00;2.03;;;;;;;4.81;67.43;93462.75;2057943;69;20558;-71
2023/01/02 03:35:58;;;;;;;3.53;1.75;;;;;;;4.78;67.53;93461.84;2057511;69;20232;-70
2023/01/02 03:38:34;;;;;;;2.55;1.75;;;;;;;4.72;67.70;93450.13;2057448;69;20166;-72
2023/01/02 03:41:32;;;;;;;3.45;1.85;;;;;;;4.92;67.19;93451.25;2056350;69;20153;-71
2023/01/02 03:44:00;;;;;;;4.65;1.95;;;;;;;4.70;67.51;93443.59;2056842;69;20224;-71
2023/01/02 03:46:52;;;;;;;2.72;1.65;;;;;;;4.81;67.61;93437.66;2057081;69;20611;-70
2023/01/02 03:49:22;;;;;;;2.53;1.50;;;;;;;5.01;66.73;93441.59;2057671;69;20618;-71
2023/01/02 03:51:49;;;;;;;2.65;1.75;;;;;;;4.70;66.95;93438.75;2057822;69;20146;-71
2023/01/02 03:54:16;;;;;;;2.30;1.50;;;;;;;4.82;66.65;93439.91;2056020;69;20154;-71
2023/01/02 03:57:10;;;;;;;2.13;1.33;;;;;;;5.13;65.91;93447.53;2057667;69;20607;-71
2023/01/02 03:59:56;;;;;;;2.47;1.50;;;;;;;5.11;66.67;93448.09;2057825;69;20160;-72
2023/01/02 04:02:24;;;;;;;3.03;1.60;;;;;;;5.22;65.28;93442.16;2057932;69;20217;-72
2023/01/02 04:04:54;;;;;;;4.30;3.20;;;;;;;5.31;65.13;93452.78;2056104;69;20162;-72
2023/01/02 04:07:37;;;;;;;3.20;2.13;;;;;;;5.22;65.00;93438.59;2056336;69;20590;-72
2023/01/02 04:10:05;;;;;;;2.17;1.60;;;;;;;5.19;65.14;93448.84;2057315;69;20158;-72
2023/01/02 04:12:34;;;;;;;2.60;1.77;;;;;;;5.15;65.66;93447.75;2058815;69;20146;-70
2023/01/02 04:15:12;;;;;;;2.38;1.40;;;;;;;4.94;66.74;93445.09;2058546;69;20163;-71
2023/01/02 04:17:44;;;;;;;2.28;1.45;;;;;;;4.76;66.78;93439.31;2058467;69;20149;-73
2023/01/02 04:20:20;;;;;;;2.20;1.60;;;;;;;4.91;66.93;93440.66;2056114;69;20239;-71
2023/01/02 04:22:51;;;;;;;1.83;1.23;;;;;;;5.03;65.89;93447.34;2056643;69;20193;-75
2023/01/02 04:25:18;;;;;;;2.13;1.15;;;;;;;4.92;66.99;93439.34;2057363;69;20158;-72
2023/01/02 04:27:53;;;;;;;1.30;1.00;;;;;;;4.99;67.06;93438.59;2057619;69;20156;-72
2023/01/02 04:30:19;;;;;;;1.20;1.00;;;;;;;4.87;67.00;93440.28;2057793;69;20196;-71
2023/01/02 04:32:46;;;;;;;2.30;0.95;;;;;;;4.99;66.91;93439.34;2057722;69;20655;-72
2023/01/02 04:35:20;;;;;;;1.50;1.08;;;;;;;5.02;67.03;93443.81;2055422;69;20157;-71
2023/01/02 04:37:46;;;;;;;3.33;1.90;;;;;;;4.61;67.40;93441.34;2057851;69;20176;-74
2023/01/02 04:40:26;;;;;;;2.90;1.88;;;;;;;4.64;66.89;93429.81;2056895;69;20608;-77
2023/01/02 04:42:52;;;;;;;3.05;2.17;;;;;;;4.52;67.39;93435.00;2054634;69;20229;-79
2023/01/02 04:45:18;;;;;;;3.20;2.40;;;;;;;4.71;67.37;93437.44;2054290;69;20221;-71
2023/01/02 04:47:46;;;;;;;1.98;1.23;;;;;;;4.75;67.42;93439.88;2054391;69;20731;-74
2023/01/02 04:50:12;;;;;;;2.05;1.42;;;;;;;4.96;66.03;93440.47;2056678;69;20201;-70
2023/01/02 04:52:37;;;;;;;1.80;1.30;;;;;;;5.01;66.20;93442.34;2057853;69;20241;-72
2023/01/02 04:55:07;;;;;;;2.20;1.30;;;;;;;4.96;65.92;93436.94;2056231;69;20216;-72
2023/01/02 04:57:33;;;;;;;2.58;1.65;;;;;;;5.15;65.46;93445.69;2054585;69;20634;-72
2023/01/02 04:59:58;;;;;;;3.22;2.03;;;;;;;4.90;65.82;93431.53;2054531;69;20248;-72
2023/01/02 05:02:24;;;;;;;11.15;5.60;;;;;;;4.97;65.75;93447.53;2057150;69;20150;-73
2023/01/02 05:04:49;;;;;;;6.18;3.13;;;;;;;4.89;65.96;93446.78;2057092;69;20188;-72
2023/01/02 05:07:15;;;;;;;3.30;2.00;;;;;;;5.00;65.77;93445.69;2057402;69;20181;-72
2023/01/02 05:09:40;;;;;;;2.10;1.40;;;;;;;5.02;65.73;93457.78;2056803;69;20553;-73
2023/01/02 05:12:06;;;;;;;2.55;1.40;;;;;;;4.95;64.98;93452.94;2055038;69;20146;-72
2023/01/02 05:14:32;;;;;;;1.80;1.20;;;;;;;5.05;65.21;93458.72;2054866;69;20144;-80
2023/01/02 05:16:58;;;;;;;2.40;1.38;;;;;;;5.14;65.17;93463.75;2057628;69;20509;-75
2023/01/02 05:19:23;;;;;;;1.75;1.27;;;;;;;4.97;65.77;93461.50;2056843;69;20130;-71
2023/01/02 05:24:33;;;;;;;2.92;1.05;;;;;;;4.99;66.42;93464.47;2054766;69;20165;-72
2023/01/02 05:26:59;;;;;;;2.05;1.08;;;;;;;4.97;66.86;93464.28;2057647;69;20589;-72
2023/01/02 05:29:24;;;;;;;2.80;1.67;;;;;;;4.89;66.16;93466.31;2057548;69;20157;-73
2023/01/02 05:31:50;;;;;;;2.15;1.30;;;;;;;4.79;66.49;93466.09;2057134;69;20153;-71
2023/01/02 05:34:16;;;;;;;2.50;1.75;;;;;;;4.81;65.74;93452.38;2056790;69;20283;-72
2023/01/02 05:36:42;;;;;;;2.42;1.20;;;;;;;4.88;65.73;93455.72;2059709;69;20157;-75
2023/01/02 05:39:12;;;;;;;2.50;1.67;;;;;;;4.91;65.27;93460.94;2060915;69;20603;-75
2023/01/02 05:41:39;;;;;;;2.67;1.92;;;;;;;5.07;64.81;93467.25;2061102;69;20161;-73
2023/01/02 05:44:07;;;;;;;5.78;3.75;;;;;;;4.92;65.34;93464.47;2057497;69;20237;-75
2023/01/02 05:46:33;;;;;;;4.10;2.13;;;;;;;4.85;65.68;93454.75;2057170;69;20246;-73
2023/01/02 05:48:59;;;;;;;2.78;1.45;;;;;;;4.96;65.73;93464.84;2057631;69;20565;-72
2023/01/02 05:51:24;;;;;;;3.70;1.33;;;;;;;4.90;66.23;93465.00;2056839;69;20165;-73
2023/01/02 05:53:53;;;;;;;2.58;1.45;;;;;;;4.83;66.31;93472.06;2057679;69;20321;-73
2023/01/02 05:56:20;;;;;;;3.42;1.33;;;;;;;4.75;66.97;93457.34;2056901;69;20157;-74
2023/01/02 05:58:47;;;;;;;3.13;1.35;;;;;;;4.87;65.75;93465.38;2057112;69;20235;-72
2023/01/02 06:01:16;;;;;;;3.13;1.70;;;;;;;4.90;65.26;93467.78;2057165;69;20141;-73
2023/01/02 06:03:50;;;;;;;3.45;1.77;;;;;;;4.97;65.45;93467.06;2054808;69;20141;-72
2023/01/02 06:06:18;;;;;;;2.47;1.40;;;;;;;4.99;65.22;93464.47;2057727;69;20228;-72
2023/01/02 06:08:43;;;;;;;2.55;1.48;;;;;;;5.04;65.46;93460.00;2056332;69;20621;-73
2023/01/02 06:11:09;;;;;;;2.10;1.40;;;;;;;5.06;64.63;93460.94;2054345;69;20253;-71
2023/01/02 06:13:37;;;;;;;2.83;1.42;;;;;;;5.00;65.31;93460.38;2055075;69;20150;-74
2023/01/02 06:16:05;;;;;;;1.77;1.20;;;;;;;4.90;66.43;93451.06;2057540;69;20233;-71
2023/01/02 06:18:33;;;;;;;1.95;1.30;;;;;;;5.09;64.98;93451.47;2057565;69;20237;-74
2023/01/02 06:21:12;;;;;;;4.00;1.85;;;;;;;5.06;64.62;93449.78;2057044;69;20220;-76
2023/01/02 06:23:38;;;;;;;4.60;1.90;;;;;;;5.09;64.07;93451.47;2057351;69;20581;-72
2023/01/02 06:26:06;;;;;;;1.48;1.08;;;;;;;4.96;65.91;93442.53;2057420;69;20578;-72
2023/01/02 06:28:32;;;;;;;2.45;1.10;;;;;;;5.08;65.62;93455.53;2055808;69;20154;-73
2023/01/02 06:31:02;;;;;;;2.03;1.20;;;;;;;4.87;65.96;93445.84;2056199;69;20584;-72
2023/01/02 06:33:29;;;;;;;3.85;2.17;;;;;;;4.89;65.60;93446.78;2054150;69;20143;-72
2023/01/02 06:36:04;;;;;;;8.25;3.90;;;;;;;5.02;64.48;93449.41;2055112;69;20154;-74
2023/01/02 06:38:30;;;;;;;3.33;1.45;;;;;;;5.04;64.39;93448.84;2055418;69;20181;-71
2023/01/02 06:40:59;;;;;;;3.60;1.80;;;;;;;5.06;64.25;93457.41;2056987;69;20177;-72
2023/01/02 06:43:26;;;;;;;3.00;1.58;;;;;;;5.13;64.47;93453.88;2057411;69;20157;-71
2023/01/02 06:45:55;;;;;;;3.78;2.15;;;;;;;4.92;64.18;93453.31;2056444;69;20516;-75
2023/01/02 06:48:21;;;;;;;5.45;2.97;;;;;;;4.89;64.57;93457.94;2056773;69;20628;-74
2023/01/02 06:50:47;;;;;;;4.10;2.70;;;;;;;4.94;65.05;93454.22;2056855;69;20153;-73
2023/01/02 06:53:13;;;;;;;4.97;2.00;;;;;;;4.74;65.61;93455.13;2055556;69;20157;-77
2023/01/02 06:55:39;;;;;;;3.65;2.50;;;;;;;4.96;64.75;93459.25;2056928;69;20150;-76
2023/01/02 06:58:05;;;;;;;6.93;3.15;;;;;;;4.69;65.00;93462.38;2057076;69;20184;-73
2023/01/02 07:00:30;;;;;;;13.98;7.30;;;;;;;4.83;64.41;93463.69;2056520;69;20156;-72
2023/01/02 07:02:56;;;;;;;12.38;6.22;;;;;;;4.81;64.54;93465.53;2055443;69;20621;-71
2023/01/02 07:05:22;;;;;;;8.15;4.32;;;;;;;4.62;65.45;93471.44;2056908;69;20148;-71
2023/01/02 07:07:47;;;;;;;5.68;3.20;;;;;;;4.70;65.65;93469.44;2057828;69;20274;-71
2023/01/02 07:10:13;;;;;;;2.75;1.50;;;;;;;4.73;65.39;93467.59;2056295;69;20152;-72
2023/01/02 07:12:38;;;;;;;5.35;1.50;;;;;;;4.83;65.64;93462.97;2056897;69;20204;-74
2023/01/02 07:15:05;;;;;;;1.88;1.23;;;;;;;4.74;66.27;93466.28;2055977;69;20153;-71
2023/01/02 07:17:32;;;;;;;1.58;1.20;;;;;;;4.80;66.34;93470.38;2057192;69;20244;-70
2023/01/02 07:19:58;;;;;;;4.57;3.03;;;;;;;4.71;65.82;93479.28;2055449;69;20316;-71
2023/01/02 07:22:24;;;;;;;10.90;5.60;;;;;;;4.44;66.16;93470.47;2056958;69;20617;-76
2023/01/02 07:24:50;;;;;;;7.45;4.40;;;;;;;4.52;66.02;93481.66;2056633;69;20219;-76
2023/01/02 07:27:15;;;;;;;6.57;4.57;;;;;;;4.59;65.72;93487.25;2055999;69;20197;-75
2023/01/02 07:29:43;;;;;;;6.50;3.78;;;;;;;4.45;66.95;93482.38;2057704;69;20150;-76
2023/01/02 07:32:09;;;;;;;5.22;3.75;;;;;;;4.51;66.56;93488.53;2056270;69;20237;-71
2023/01/02 07:34:35;;;;;;;12.07;5.88;;;;;;;4.35;66.99;93487.72;2056717;69;20157;-74
2023/01/02 07:37:01;;;;;;;7.45;4.20;;;;;;;4.38;66.47;93488.66;2056489;69;20623;-72
2023/01/02 07:39:27;;;;;;;5.13;2.92;;;;;;;4.43;67.63;93496.88;2056727;69;20600;-72
2023/01/02 07:41:54;;;;;;;5.15;2.30;;;;;;;4.66;65.89;93496.94;2055168;69;20138;-73
2023/01/02 07:44:19;;;;;;;3.88;1.90;;;;;;;4.77;65.58;93491.03;2054579;69;20304;-74
2023/01/02 07:46:49;;;;;;;9.20;4.93;;;;;;;4.75;65.38;93488.03;2054613;69;20156;-77
2023/01/02 07:49:16;;;;;;;16.70;8.50;;;;;;;4.53;65.63;93492.25;2054356;69;20252;-73
2023/01/02 07:51:42;;;;;;;17.40;7.85;;;;;;;4.60;65.73;93490.78;2054225;69;20226;-73
2023/01/02 07:54:07;;;;;;;25.80;11.88;;;;;;;4.55;66.07;93491.72;2054522;69;20263;-77
2023/01/02 07:56:33;;;;;;;18.48;9.32;;;;;;;4.57;66.10;93491.91;2054646;69;20198;-79
2023/01/02 07:58:58;;;;;;;10.10;4.85;;;;;;;4.65;65.91;93489.13;2054405;69;20253;-77
2023/01/02 08:01:25;;;;;;;5.35;2.20;;;;;;;4.79;66.65;93493.25;2054648;69;20184;-75
2023/01/02 08:03:50;;;;;;;4.38;2.00;;;;;;;4.80;66.41;93491.97;2054619;69;20257;-72
2023/01/02 08:06:17;;;;;;;4.20;2.15;;;;;;;4.94;65.32;93487.72;2054482;69;20613;-73
2023/01/02 08:08:43;;;;;;;3.55;1.75;;;;;;;4.93;66.44;93505.00;2054413;69;20142;-73
2023/01/02 08:11:18;;;;;;;7.43;4.47;;;;;;;4.64;66.34;93504.38;2056025;69;20156;-71
2023/01/02 08:13:44;;;;;;;5.97;2.97;;;;;;;4.93;64.14;93502.97;2057795;69;20296;-73
2023/01/02 08:16:14;;;;;;;5.10;2.17;;;;;;;5.11;64.28;93509.50;2057215;69;20170;-73
2023/01/02 08:18:40;;;;;;;3.30;2.20;;;;;;;5.05;64.93;93509.69;2057730;69;20241;-73
2023/01/02 08:21:08;;;;;;;5.18;2.50;;;;;;;5.08;64.52;93502.25;2057715;69;20148;-73
2023/01/02 08:23:34;;;;;;;6.15;2.50;;;;;;;5.08;64.22;93507.81;2056615;69;20162;-73
2023/01/02 08:26:02;;;;;;;4.35;2.80;;;;;;;5.28;62.42;93503.41;2054451;69;20157;-72
2023/01/02 08:28:27;;;;;;;3.67;1.67;;;;;;;5.29;64.64;93500.03;2054531;69;20166;-73
2023/01/02 08:30:53;;;;;;;8.88;4.90;;;;;;;5.19;63.74;93507.47;2054464;69;20204;-73
2023/01/02 08:33:19;;;;;;;8.02;4.95;;;;;;;5.27;63.43;93501.91;2057051;69;20150;-73
2023/01/02 08:35:47;;;;;;;7.65;4.03;;;;;;;5.27;64.14;93501.91;2057711;69;20241;-76
2023/01/02 08:38:12;;;;;;;8.30;3.85;;;;;;;5.30;63.15;93506.38;2057210;69;20192;-75
2023/01/02 08:40:38;;;;;;;5.88;3.00;;;;;;;5.12;63.04;93487.94;2056010;69;20157;-73
2023/01/02 08:43:06;;;;;;;7.90;3.40;;;;;;;5.28;62.89;93508.97;2053862;70;20138;-74
2023/01/02 08:45:32;;;;;;;6.13;3.50;;;;;;;5.34;62.08;93521.44;2054449;69;20154;-73
2023/01/02 08:47:58;;;;;;;6.75;3.53;;;;;;;5.47;61.62;93514.94;2054554;69;20161;-77
2023/01/02 08:50:23;;;;;;;4.05;2.50;;;;;;;5.55;62.87;93507.31;2054646;69;20621;-75
2023/01/02 08:52:49;;;;;;;5.38;2.85;;;;;;;5.52;61.93;93516.81;2056409;69;20165;-73
2023/01/02 08:55:16;;;;;;;6.60;3.90;;;;;;;5.78;61.39;93512.16;2057743;69;20206;-72
2023/01/02 08:57:41;;;;;;;7.78;3.70;;;;;;;6.19;60.83;93513.03;2056084;69;20448;-73
2023/01/02 09:00:08;;;;;;;5.18;3.28;;;;;;;6.60;60.24;93509.00;2054494;69;20149;-73
2023/01/02 09:02:35;;;;;;;5.63;3.35;;;;;;;6.99;59.26;93512.34;2053853;70;20146;-73
2023/01/02 09:05:01;;;;;;;6.05;3.70;;;;;;;7.06;58.57;93512.31;2054304;69;20601;-74
2023/01/02 09:07:27;;;;;;;7.45;4.07;;;;;;;7.13;57.42;93510.78;2054210;69;20184;-74
2023/01/02 09:09:53;;;;;;;9.60;5.40;;;;;;;7.23;57.89;93510.91;2054301;69;20144;-74
2023/01/02 09:12:19;;;;;;;9.13;5.97;;;;;;;7.57;57.06;93501.88;2054523;69;20146;-76
2023/01/02 09:14:45;;;;;;;9.65;4.80;;;;;;;7.82;57.04;93505.41;2054489;69;20227;-72
2023/01/02 09:17:10;;;;;;;10.27;5.70;;;;;;;8.02;56.70;93508.44;2054527;69;20150;-72
2023/01/02 09:19:36;;;;;;;10.18;5.95;;;;;;;8.29;56.55;93500.09;2054098;69;20174;-73
2023/01/02 09:22:03;;;;;;;7.90;4.72;;;;;;;8.70;56.04;93501.34;2054314;69;20707;-73
2023/01/02 09:24:28;;;;;;;7.10;4.22;;;;;;;8.90;53.43;93505.03;2053706;69;20134;-73
2023/01/02 09:26:54;;;;;;;11.05;6.13;;;;;;;8.84;54.64;93501.75;2054502;69;20141;-73
2023/01/02 09:29:20;;;;;;;13.95;7.35;;;;;;;8.61;55.13;93508.41;2054320;69;20142;-72
2023/01/02 09:31:47;;;;;;;9.57;5.85;;;;;;;9.13;55.33;93508.28;2054126;69;20241;-71
2023/01/02 09:34:13;;;;;;;12.98;6.38;;;;;;;9.49;54.98;93506.84;2053862;70;20146;-73
2023/01/02 09:36:38;;;;;;;10.32;5.63;;;;;;;9.61;53.48;93501.41;2054288;69;20256;-72
2023/01/02 09:39:04;;;;;;;11.95;6.57;;;;;;;9.66;53.15;93498.31;2054212;69;20554;-74
2023/01/02 09:41:39;;;;;;;14.45;7.53;;;;;;;9.89;53.99;93500.03;2055587;69;20582;-72
2023/01/02 09:44:34;;;;;;;12.35;7.90;;;;;;;10.17;51.60;93495.81;2057562;69;20129;-75
2023/01/02 09:47:09;;;;;;;14.73;7.75;;;;;;;10.68;52.04;93483.44;2056944;69;20225;-75
2023/01/02 09:49:44;;;;;;;13.55;6.45;;;;;;;10.45;51.58;93490.84;2057638;69;20158;-76
2023/01/02 09:52:22;;;;;;;13.23;7.72;;;;;;;10.20;50.83;93486.19;2057579;69;20586;-77
2023/01/02 09:54:47;;;;;;;11.50;6.88;;;;;;;11.07;50.42;93472.13;2057488;69;20165;-76
2023/01/02 09:57:22;;;;;;;12.55;7.43;;;;;;;11.40;50.55;93471.59;2056557;69;20688;-77
2023/01/02 10:00:14;;;;;;;11.15;6.15;;;;;;;11.52;49.66;93466.78;2054086;69;20138;-74
2023/01/02 10:02:59;;;;;;;9.10;5.28;;;;;;;11.98;49.14;93471.38;2054259;69;20659;-73
2023/01/02 10:05:53;;;;;;;11.65;5.78;;;;;;;12.40;47.77;93467.09;2054265;69;20138;-73
2023/01/02 10:08:54;;;;;;;9.38;4.88;;;;;;;12.24;47.93;93466.75;2053149;70;20150;-73
2023/01/02 10:11:32;;;;;;;9.10;5.18;;;;;;;12.64;47.68;93460.22;2053547;70;20140;-73
2023/01/02 10:14:15;;;;;;;9.68;5.22;;;;;;;12.80;46.68;93459.81;2054262;69;20229;-73
2023/01/02 10:16:48;;;;;;;6.20;4.32;;;;;;;12.58;47.05;93468.28;2054258;69;20146;-73
2023/01/02 10:19:29;;;;;;;6.10;3.72;;;;;;;13.40;46.49;93459.38;2057070;69;20301;-73
2023/01/02 10:21:59;;;;;;;6.43;3.72;;;;;;;13.89;45.19;93459.56;2057493;69;20237;-74
2023/01/02 10:25:00;;;;;;;6.10;3.50;;;;;;;14.53;43.91;93447.06;2057392;69;20169;-74
2023/01/02 10:27:31;;;;;;;5.80;3.70;;;;;;;13.03;43.93;93448.56;2058259;69;20131;-74
2023/01/02 10:30:15;;;;;;;5.18;2.63;;;;;;;13.38;46.18;93434.56;2054189;69;20150;-74
2023/01/02 10:32:46;;;;;;;5.35;2.58;;;;;;;14.85;44.05;93431.91;2054764;69;20230;-73
2023/01/02 10:35:38;;;;;;;4.38;2.90;;;;;;;15.25;40.61;93422.06;2056690;69;20150;-75
2023/01/02 10:38:04;;;;;;;9.05;3.30;;;;;;;15.57;42.63;93422.38;2054768;69;20682;-74
2023/01/02 10:40:31;;;;;;;6.78;3.80;;;;;;;16.06;40.58;93430.66;2054486;70;20273;-76
2023/01/02 10:42:58;;;;;;;10.18;4.90;;;;;;;16.00;39.66;93431.09;2054723;69;20173;-74
2023/01/02 10:45:23;;;;;;;7.32;4.40;;;;;;;16.27;38.97;93418.25;2054892;69;20158;-75
2023/01/02 10:47:49;;;;;;;12.10;4.40;;;;;;;15.21;40.29;93415.44;2054758;69;20234;-74
2023/01/02 10:50:24;;;;;;;11.80;6.35;;;;;;;14.99;41.06;93423.47;2054754;69;20266;-75
2023/01/02 10:52:53;;;;;;;14.13;9.00;;;;;;;16.77;38.82;93410.81;2054674;69;20152;-72
2023/01/02 10:55:29;;;;;;;15.57;10.35;;;;;;;16.45;38.36;93416.34;2054021;70;20158;-76
2023/01/02 10:58:06;;;;;;;15.40;8.23;;;;;;;17.10;39.10;93398.91;2054346;69;20145;-75
2023/01/02 11:00:34;;;;;;;12.10;7.72;;;;;;;18.54;36.24;93395.38;2054813;69;20268;-75
2023/01/02 11:03:22;;;;;;;11.95;7.00;;;;;;;19.62;34.51;93401.91;2054748;69;20169;-80
2023/01/02 11:05:50;;;;;;;17.27;7.60;;;;;;;17.11;37.24;93413.84;2054665;69;20129;-74
2023/01/02 11:08:20;;;;;;;13.90;9.23;;;;;;;19.60;35.25;93408.25;2054653;69;20185;-73
2023/01/02 11:10:47;;;;;;;20.45;12.02;;;;;;;19.82;34.46;93405.53;2054488;69;20158;-74
2023/01/02 11:13:16;;;;;;;15.35;9.73;;;;;;;19.58;32.16;93398.88;2056458;69;20212;-74
2023/01/02 11:15:48;;;;;;;18.48;11.45;;;;;;;17.20;36.34;93387.25;2058036;69;20673;-76
2023/01/02 11:18:26;;;;;;;17.80;12.23;;;;;;;16.97;36.85;93391.16;2057989;69;20160;-78
2023/01/02 11:20:55;;;;;;;16.08;11.10;;;;;;;16.64;37.71;93383.88;2058171;69;20619;-76
2023/01/02 11:23:25;;;;;;;11.48;7.53;;;;;;;16.61;36.52;93384.41;2057973;69;20219;-79
2023/01/02 11:25:53;;;;;;;7.75;4.70;;;;;;;16.62;35.98;93377.34;2056998;69;20594;-76
2023/01/02 11:28:22;;;;;;;15.32;10.05;;;;;;;14.09;41.07;93375.09;2057151;69;20241;-77
2023/01/02 11:30:51;;;;;;;16.42;9.80;;;;;;;15.35;40.47;93379.38;2057868;69;20126;-74
2023/01/02 11:33:23;;;;;;;13.40;9.07;;;;;;;15.56;39.94;93369.09;2057884;69;20678;-75
2023/01/02 11:36:06;;;;;;;10.40;6.28;;;;;;;15.85;39.44;93359.97;2057953;69;20156;-75
2023/01/02 11:38:52;;;;;;;9.52;5.50;;;;;;;15.83;39.29;93359.88;2057899;69;20141;-75
2023/01/02 11:44:33;;;;;;;13.02;7.80;;;;;;;14.18;41.95;93348.72;2058062;69;20150;-76
2023/01/02 11:47:00;;;;;;;16.88;9.25;;;;;;;13.91;43.43;93349.28;2057990;69;20321;-74
2023/01/02 11:49:36;;;;;;;17.05;9.35;;;;;;;14.73;43.04;93346.19;2055749;69;20146;-77
2023/01/02 11:52:04;;;;;;;14.75;9.77;;;;;;;13.91;43.33;93340.78;2054641;69;20178;-79
2023/01/02 11:54:40;;;;;;;17.15;9.20;;;;;;;14.47;42.98;93342.56;2054535;69;20129;-75
2023/01/02 11:57:38;;;;;;;17.50;9.00;;;;;;;14.59;43.04;93342.56;2054579;69;20142;-76
2023/01/02 12:00:11;;;;;;;16.08;8.43;;;;;;;14.07;43.66;93341.00;2054626;69;20150;-79